createdAt,value
2023-01-11T00:01:12.051Z,98522.63
2023-01-11T00:03:40.607Z,98532.78
2023-01-11T00:06:08.947Z,98532.00
2023-01-11T00:08:36.785Z,98526.91
2023-01-11T00:11:05.409Z,98513.38
2023-01-11T00:13:33.310Z,98501.56
2023-01-11T00:16:08.094Z,98497.34
2023-01-11T00:18:37.077Z,98490.56
2023-01-11T00:21:06.344Z,98485.50
2023-01-11T00:23:34.666Z,98478.69
2023-01-11T00:26:04.223Z,98488.06
2023-01-11T00:28:32.308Z,98482.94
2023-01-11T00:31:00.352Z,98488.91
2023-01-11T00:33:29.558Z,98482.94
2023-01-11T00:35:57.383Z,98485.50
2023-01-11T00:38:43.322Z,98490.63
2023-01-11T00:41:30.642Z,98482.13
2023-01-11T00:44:15.944Z,98482.13
2023-01-11T00:47:01.914Z,98489.78
2023-01-11T00:49:31.562Z,98473.63
2023-01-11T00:51:59.377Z,98488.06
2023-01-11T00:54:27.237Z,98485.44
2023-01-11T00:56:55.029Z,98488.00
2023-01-11T00:59:22.943Z,98488.88
2023-01-11T01:01:50.709Z,98496.47
2023-01-11T01:04:18.581Z,98514.22
2023-01-11T01:06:47.872Z,98518.41
2023-01-11T01:09:15.798Z,98537.81
2023-01-11T01:11:43.631Z,98552.19
2023-01-11T01:14:26.751Z,98571.66
2023-01-11T01:16:55.621Z,98577.47
2023-01-11T01:19:24.335Z,98583.38
2023-01-11T01:21:53.472Z,98583.38
2023-01-11T01:24:21.338Z,98598.66
2023-01-11T01:26:49.409Z,98595.16
2023-01-11T01:29:17.496Z,98594.31
2023-01-11T01:31:45.955Z,98601.97
2023-01-11T01:34:14.169Z,98595.22
2023-01-11T01:36:42.029Z,98600.25
2023-01-11T01:39:12.952Z,98597.75
2023-01-11T01:41:40.865Z,98607.09
2023-01-11T01:44:42.131Z,98604.47
2023-01-11T01:47:10.799Z,98605.38
2023-01-11T01:49:39.527Z,98614.69
2023-01-11T01:52:07.541Z,98616.34
2023-01-11T01:54:41.650Z,98623.09
2023-01-11T01:57:14.536Z,98634.09
2023-01-11T01:59:42.768Z,98630.66
2023-01-11T02:02:10.983Z,98647.66
2023-01-11T02:04:41.660Z,98637.44
2023-01-11T02:07:13.424Z,98647.63
2023-01-11T02:09:49.735Z,98658.63
2023-01-11T02:12:17.964Z,98660.28
2023-01-11T02:14:47.246Z,98660.28
2023-01-11T02:17:15.387Z,98663.66
2023-01-11T02:19:54.607Z,98667.84
2023-01-11T02:22:58.291Z,98671.25
2023-01-11T02:25:53.038Z,98669.53
2023-01-11T02:28:29.631Z,98678.84
2023-01-11T02:31:06.566Z,98683.06
2023-01-11T02:33:43.407Z,98690.69
2023-01-11T02:36:21.043Z,98689.78
2023-01-11T02:38:58.823Z,98695.75
2023-01-11T02:41:53.493Z,98705.06
2023-01-11T02:44:46.096Z,98696.53
2023-01-11T02:47:19.545Z,98701.66
2023-01-11T02:49:56.152Z,98709.25
2023-01-11T02:52:31.367Z,98716.03
2023-01-11T02:55:01.033Z,98719.44
2023-01-11T02:57:30.557Z,98734.66
2023-01-11T03:00:01.230Z,98735.38
2023-01-11T03:02:29.168Z,98757.47
2023-01-11T03:04:57.118Z,98761.69
2023-01-11T03:07:40.295Z,98771.00
2023-01-11T03:10:19.524Z,98771.81
2023-01-11T03:12:59.588Z,98781.94
2023-01-11T03:15:46.668Z,98798.78
2023-01-11T03:18:28.443Z,98826.72
2023-01-11T03:21:07.120Z,98839.38
2023-01-11T03:23:40.050Z,98846.97
2023-01-11T03:26:16.880Z,98863.88
2023-01-11T03:28:54.349Z,98890.19
2023-01-11T03:31:31.792Z,98915.50
2023-01-11T03:34:05.589Z,98948.56
2023-01-11T03:36:40.612Z,98961.19
2023-01-11T03:39:14.254Z,98973.91
2023-01-11T03:41:44.770Z,98984.09
2023-01-11T03:44:15.295Z,98974.75
2023-01-11T03:46:48.341Z,98964.59
2023-01-11T03:49:21.480Z,98957.09
2023-01-11T03:51:51.976Z,98938.41
2023-01-11T03:54:23.786Z,98922.34
2023-01-11T03:56:57.423Z,98905.38
2023-01-11T03:59:26.494Z,98899.53
2023-01-11T04:01:56.517Z,98897.00
2023-01-11T04:04:25.055Z,98879.13
2023-01-11T04:06:53.035Z,98882.59
2023-01-11T04:09:21.033Z,98871.50
2023-01-11T04:11:48.842Z,98872.38
2023-01-11T04:14:16.633Z,98872.38
2023-01-11T04:16:44.506Z,98869.81
2023-01-11T04:19:13.703Z,98874.94
2023-01-11T04:21:41.503Z,98876.66
2023-01-11T04:24:09.410Z,98877.50
2023-01-11T04:26:37.200Z,98879.16
2023-01-11T04:29:05.062Z,98890.28
2023-01-11T04:31:32.969Z,98889.38
2023-01-11T04:34:00.765Z,98887.66
2023-01-11T04:36:31.500Z,98882.53
2023-01-11T04:38:59.679Z,98902.03
2023-01-11T04:41:45.007Z,98908.81
2023-01-11T04:44:12.981Z,98931.69
2023-01-11T04:46:40.790Z,98942.69
2023-01-11T04:49:08.613Z,98950.25
2023-01-11T04:51:37.739Z,98962.09
2023-01-11T04:54:05.912Z,98974.81
2023-01-11T04:56:34.073Z,98997.66
2023-01-11T04:59:01.995Z,99010.38
2023-01-11T05:01:29.881Z,99019.59
2023-01-11T05:03:57.957Z,99039.13
2023-01-11T05:06:25.862Z,99054.38
2023-01-11T05:08:55.275Z,99049.25
2023-01-11T05:11:23.095Z,99060.31
2023-01-11T05:13:50.948Z,99056.03
2023-01-11T05:16:21.051Z,99064.53
2023-01-11T05:18:50.607Z,99067.03
2023-01-11T05:21:20.910Z,99075.53
2023-01-11T05:23:49.161Z,99081.44
2023-01-11T05:26:20.507Z,99084.84
2023-01-11T05:28:48.625Z,99082.25
2023-01-11T05:31:17.336Z,99096.66
2023-01-11T05:33:45.667Z,99104.28
2023-01-11T05:36:18.057Z,99100.06
2023-01-11T05:38:46.974Z,99094.16
2023-01-11T05:41:15.420Z,99094.19
2023-01-11T05:44:04.812Z,99080.53
2023-01-11T05:46:33.868Z,99084.84
2023-01-11T05:49:01.830Z,99085.66
2023-01-11T05:51:31.278Z,99082.28
2023-01-11T05:53:59.649Z,99093.31
2023-01-11T05:56:27.791Z,99093.28
2023-01-11T05:58:57.088Z,99106.03
2023-01-11T06:01:26.153Z,99117.09
2023-01-11T06:03:54.020Z,99117.94
2023-01-11T06:06:22.359Z,99119.59
2023-01-11T06:08:50.337Z,99138.22
2023-01-11T06:11:18.090Z,99159.44
2023-01-11T06:13:45.990Z,99184.88
2023-01-11T06:16:17.245Z,99220.41
2023-01-11T06:18:47.099Z,99247.50
2023-01-11T06:21:15.761Z,99270.47
2023-01-11T06:23:45.408Z,99289.03
2023-01-11T06:26:15.191Z,99328.03
2023-01-11T06:28:43.196Z,99361.13
2023-01-11T06:31:11.524Z,99385.66
2023-01-11T06:33:40.700Z,99419.66
2023-01-11T06:36:10.325Z,99444.22
2023-01-11T06:38:39.384Z,99480.72
2023-01-11T06:41:09.258Z,99503.59
2023-01-11T06:43:38.477Z,99538.44
2023-01-11T06:46:06.680Z,99552.03
2023-01-11T06:48:34.592Z,99563.06
2023-01-11T06:51:03.777Z,99571.56
2023-01-11T06:53:31.541Z,99577.50
2023-01-11T06:55:59.777Z,99575.78
2023-01-11T06:58:28.165Z,99586.81
2023-01-11T07:00:57.991Z,99587.72
2023-01-11T07:03:26.545Z,99586.81
2023-01-11T07:05:56.592Z,99595.34
2023-01-11T07:08:26.770Z,99586.03
2023-01-11T07:10:55.483Z,99580.91
2023-01-11T07:13:23.550Z,99570.72
2023-01-11T07:15:54.017Z,99557.09
2023-01-11T07:18:22.220Z,99552.03
2023-01-11T07:20:51.502Z,99552.94
2023-01-11T07:23:19.377Z,99547.81
2023-01-11T07:25:49.114Z,99539.31
2023-01-11T07:28:17.264Z,99535.88
2023-01-11T07:30:57.626Z,99529.13
2023-01-11T07:33:26.747Z,99532.50
2023-01-11T07:35:54.587Z,99535.91
2023-01-11T07:38:22.469Z,99533.41
2023-01-11T07:40:51.706Z,99520.63
2023-01-11T07:43:19.890Z,99515.56
2023-01-11T07:45:50.301Z,99504.47
2023-01-11T07:48:24.644Z,99505.38
2023-01-11T07:50:53.460Z,99513.00
2023-01-11T07:53:21.390Z,99513.84
2023-01-11T07:55:49.245Z,99513.84
2023-01-11T07:58:18.395Z,99517.25
2023-01-11T08:00:48.802Z,99518.97
2023-01-11T08:03:16.703Z,99502.81
2023-01-11T08:05:44.634Z,99493.53
2023-01-11T08:08:12.438Z,99477.38
2023-01-11T08:10:42.091Z,99462.94
2023-01-11T08:13:31.123Z,99451.09
2023-01-11T08:16:00.570Z,99443.50
2023-01-11T08:18:28.506Z,99440.09
2023-01-11T08:20:56.336Z,99433.28
2023-01-11T08:23:24.159Z,99431.59
2023-01-11T08:25:57.548Z,99430.75
2023-01-11T08:28:25.491Z,99425.63
2023-01-11T08:30:53.450Z,99431.66
2023-01-11T08:33:22.671Z,99429.03
2023-01-11T08:35:50.532Z,99432.47
2023-01-11T08:38:18.396Z,99434.16
2023-01-11T08:40:46.176Z,99434.16
2023-01-11T08:43:13.981Z,99441.00
2023-01-11T08:45:41.811Z,99447.78
2023-01-11T08:48:09.627Z,99445.19
2023-01-11T08:50:38.834Z,99448.56
2023-01-11T08:53:06.661Z,99457.94
2023-01-11T08:55:34.583Z,99465.63
2023-01-11T08:58:02.320Z,99470.72
2023-01-11T09:00:30.179Z,99472.38
2023-01-11T09:03:01.155Z,99485.09
2023-01-11T09:05:29.227Z,99488.44
2023-01-11T09:07:58.777Z,99509.78
2023-01-11T09:10:27.193Z,99515.69
2023-01-11T09:12:55.274Z,99515.63
2023-01-11T09:15:23.381Z,99523.28
2023-01-11T09:17:51.540Z,99537.75
2023-01-11T09:20:19.782Z,99542.84
2023-01-11T09:22:49.746Z,99547.91
2023-01-11T09:25:20.643Z,99558.97
2023-01-11T09:27:49.765Z,99565.78
2023-01-11T09:30:23.809Z,99571.78
2023-01-11T09:32:52.909Z,99573.44
2023-01-11T09:35:21.892Z,99579.34
2023-01-11T09:37:50.420Z,99580.19
2023-01-11T09:40:23.615Z,99587.91
2023-01-11T09:42:53.687Z,99598.06
2023-01-11T09:45:23.366Z,99602.34
2023-01-11T09:48:00.969Z,99607.47
2023-01-11T09:50:32.591Z,99607.47
2023-01-11T09:53:07.878Z,99607.41
2023-01-11T09:55:41.692Z,99617.63
2023-01-11T09:58:46.631Z,99609.91
2023-01-11T10:01:23.897Z,99618.47
2023-01-11T10:04:17.923Z,99629.56
2023-01-11T10:07:00.999Z,99628.69
2023-01-11T10:18:25.785Z,99637.19
2023-01-11T10:18:58.519Z,99638.03
2023-01-11T10:21:33.167Z,99644.84
2023-01-11T10:24:04.754Z,99647.41
2023-01-11T10:26:40.023Z,99649.91
2023-01-11T10:29:30.130Z,99650.75
2023-01-11T10:32:18.641Z,99656.72
2023-01-11T10:35:00.319Z,99672.09
2023-01-11T10:37:49.932Z,99670.34
2023-01-11T10:40:39.808Z,99677.09
2023-01-11T10:43:17.052Z,99682.22
2023-01-11T10:45:51.365Z,99685.63
2023-01-11T10:48:25.302Z,99688.16
2023-01-11T10:51:02.927Z,99693.28
2023-01-11T10:53:36.686Z,99690.72
2023-01-11T10:56:13.876Z,99697.53
2023-01-11T10:58:54.769Z,99697.56
2023-01-11T11:01:46.259Z,99694.13
2023-01-11T11:04:48.177Z,99694.97
2023-01-11T11:07:22.967Z,99698.38
2023-01-11T11:09:56.988Z,99701.81
2023-01-11T11:12:29.418Z,99708.63
2023-01-11T11:15:03.945Z,99706.88
2023-01-11T11:17:36.193Z,99713.69
2023-01-11T11:20:14.802Z,99718.00
2023-01-11T11:22:44.988Z,99714.59
2023-01-11T11:25:18.295Z,99718.00
2023-01-11T11:27:49.782Z,99718.84
2023-01-11T11:30:32.709Z,99719.66
2023-01-11T11:33:02.748Z,99723.91
2023-01-11T11:35:37.380Z,99728.16
2023-01-11T11:38:06.009Z,99729.06
2023-01-11T11:40:36.169Z,99727.31
2023-01-11T11:43:14.946Z,99731.56
2023-01-11T11:45:52.584Z,99738.38
2023-01-11T11:48:22.087Z,99739.22
2023-01-11T11:50:51.472Z,99746.06
2023-01-11T11:53:33.792Z,99743.50
2023-01-11T11:56:07.647Z,99743.50
2023-01-11T11:58:35.833Z,99748.63
2023-01-11T12:01:08.059Z,99739.19
2023-01-11T12:03:37.359Z,99741.75
2023-01-11T12:06:07.419Z,99745.22
2023-01-11T12:08:37.078Z,99749.47
2023-01-11T12:11:07.733Z,99754.56
2023-01-11T12:13:37.541Z,99753.72
2023-01-11T12:16:08.050Z,99761.38
2023-01-11T12:18:42.972Z,99769.91
2023-01-11T12:21:21.178Z,99778.44
2023-01-11T12:23:49.572Z,99772.41
2023-01-11T12:26:23.693Z,99780.09
2023-01-11T12:29:16.588Z,99780.09
2023-01-11T12:31:54.309Z,99782.69
2023-01-11T12:34:51.658Z,99781.78
2023-01-11T12:37:33.018Z,99780.09
2023-01-11T12:40:11.994Z,99786.94
2023-01-11T12:42:55.604Z,99786.94
2023-01-11T12:45:34.917Z,99785.19
2023-01-11T12:48:18.826Z,99788.66
2023-01-11T12:51:02.351Z,99786.09
2023-01-11T12:53:43.951Z,99790.38
2023-01-11T12:56:32.245Z,99791.22
2023-01-11T12:59:06.081Z,99788.59
2023-01-11T13:01:48.434Z,99785.25
2023-01-11T13:04:36.328Z,99783.50
2023-01-11T13:07:15.360Z,99782.69
2023-01-11T13:09:56.579Z,99787.75
2023-01-11T13:12:30.604Z,99785.25
2023-01-11T13:15:09.835Z,99787.81
2023-01-11T13:17:43.078Z,99786.09
2023-01-11T13:20:28.835Z,99795.47
2023-01-11T13:23:03.453Z,99795.47
2023-01-11T13:25:35.315Z,99791.16
2023-01-11T13:28:20.085Z,99803.13
2023-01-11T13:30:52.494Z,99809.09
2023-01-11T13:33:23.523Z,99802.28
2023-01-11T13:35:57.664Z,99808.22
2023-01-11T13:38:37.010Z,99797.97
2023-01-11T13:41:15.878Z,99804.81
2023-01-11T13:43:49.069Z,99811.66
2023-01-11T13:46:22.604Z,99817.66
2023-01-11T13:48:54.980Z,99818.44
2023-01-11T13:51:33.995Z,99806.53
2023-01-11T13:54:09.534Z,99810.78
2023-01-11T13:56:42.481Z,99816.75
2023-01-11T13:59:16.278Z,99819.31
2023-01-11T14:01:53.828Z,99826.91
2023-01-11T14:04:26.609Z,99836.25
2023-01-11T14:07:08.792Z,99844.84
2023-01-11T14:10:02.028Z,99847.41
2023-01-11T14:12:43.991Z,99841.38
2023-01-11T14:15:26.364Z,99840.59
2023-01-11T14:18:22.877Z,99836.25
2023-01-11T14:21:00.210Z,99842.31
2023-01-11T14:23:38.900Z,99838.84
2023-01-11T14:26:44.630Z,99844.03
2023-01-11T14:29:31.314Z,99832.09
2023-01-11T14:32:26.736Z,99814.19
2023-01-11T14:35:37.042Z,99808.31
2023-01-11T14:38:40.383Z,99795.53
2023-01-11T14:41:21.101Z,99772.56
2023-01-11T14:44:03.940Z,99768.34
2023-01-11T14:46:52.896Z,99763.22
2023-01-11T14:49:34.829Z,99742.00
2023-01-11T14:52:08.661Z,99732.59
2023-01-11T14:54:40.184Z,99721.56
2023-01-11T14:57:39.782Z,99720.75
2023-01-11T15:01:08.158Z,99713.13
2023-01-11T15:03:48.957Z,99707.13
2023-01-11T15:06:20.463Z,99703.72
2023-01-11T15:08:51.252Z,99698.66
2023-01-11T15:11:40.852Z,99689.25
2023-01-11T15:14:24.772Z,99709.69
2023-01-11T15:17:12.604Z,99700.38
2023-01-11T15:19:43.847Z,99690.22
2023-01-11T15:22:25.355Z,99679.94
2023-01-11T15:25:00.299Z,99674.03
2023-01-11T15:27:33.358Z,99660.41
2023-01-11T15:30:03.231Z,99651.94
2023-01-11T15:32:32.619Z,99633.25
2023-01-11T15:35:19.018Z,99620.53
2023-01-11T15:37:53.827Z,99607.00
2023-01-11T15:40:26.250Z,99591.66
2023-01-11T15:43:32.584Z,99588.25
2023-01-11T15:46:52.904Z,99581.50
2023-01-11T15:49:59.153Z,99563.66
2023-01-11T15:53:07.446Z,99573.03
2023-01-11T15:56:17.107Z,99556.88
2023-01-11T15:59:17.774Z,99515.28
2023-01-11T16:02:19.602Z,99517.00
2023-01-11T16:04:51.111Z,99512.75
2023-01-11T16:07:29.249Z,99494.88
2023-01-11T16:10:17.654Z,99488.97
2023-01-11T16:13:12.257Z,99481.31
2023-01-11T16:15:55.256Z,99441.41
2023-01-11T16:18:28.994Z,99426.22
2023-01-11T16:21:01.288Z,99411.81
2023-01-11T16:23:31.853Z,99393.19
2023-01-11T16:26:01.128Z,99368.56
2023-01-11T16:28:29.536Z,99358.38
2023-01-11T16:30:59.088Z,99357.53
2023-01-11T16:33:31.544Z,99337.16
2023-01-11T16:36:13.356Z,99341.41
2023-01-11T16:38:50.313Z,99355.88
2023-01-11T16:41:18.710Z,99359.22
2023-01-11T16:43:54.140Z,99371.97
2023-01-11T16:47:07.521Z,99382.13
2023-01-11T16:49:37.190Z,99395.75
2023-01-11T16:52:36.953Z,99388.06
2023-01-11T16:58:18.305Z,99399.94
2023-01-11T17:00:57.532Z,99396.59
2023-01-11T17:03:27.925Z,99383.78
2023-01-11T17:06:00.544Z,99385.50
2023-01-11T17:08:29.776Z,99366.84
2023-01-11T17:11:00.223Z,99358.38
2023-01-11T17:14:01.771Z,99347.31
2023-01-11T17:16:33.135Z,99329.53
2023-01-11T17:19:07.829Z,99297.34
2023-01-11T17:21:37.467Z,99265.13
2023-01-11T17:24:07.830Z,99229.50
2023-01-11T17:26:43.353Z,99208.38
2023-01-11T17:29:18.154Z,99176.97
2023-01-11T17:31:46.180Z,99137.16
2023-01-11T17:34:18.878Z,99105.00
2023-01-11T17:36:49.069Z,99070.31
2023-01-11T17:39:27.023Z,99028.00
2023-01-11T17:42:13.247Z,98984.81
2023-01-11T17:44:59.742Z,98946.72
2023-01-11T17:47:28.849Z,98928.94
2023-01-11T17:49:59.461Z,98921.34
2023-01-11T17:52:43.753Z,98916.28
2023-01-11T17:55:21.423Z,98915.44
2023-01-11T17:58:20.327Z,98926.44
2023-01-11T18:01:11.370Z,98932.34
2023-01-11T18:03:44.388Z,98936.56
2023-01-11T18:06:20.215Z,98930.69
2023-01-11T18:08:52.085Z,98911.22
2023-01-11T18:11:26.298Z,98881.56
2023-01-11T18:13:56.307Z,98870.56
2023-01-11T18:16:25.428Z,98854.56
2023-01-11T18:18:54.526Z,98831.69
2023-01-11T18:21:42.115Z,98810.59
2023-01-11T18:24:31.148Z,98782.69
2023-01-11T18:27:18.172Z,98748.94
2023-01-11T18:29:51.583Z,98719.31
2023-01-11T18:32:20.608Z,98705.03
2023-01-11T18:34:52.256Z,98681.34
2023-01-11T18:37:20.750Z,98659.31
2023-01-11T18:39:51.700Z,98648.41
2023-01-11T18:42:22.572Z,98640.00
2023-01-11T18:44:51.268Z,98634.03
2023-01-11T18:47:21.946Z,98620.50
2023-01-11T18:49:50.764Z,98612.09
2023-01-11T18:52:20.281Z,98609.59
2023-01-11T18:54:48.426Z,98608.72
2023-01-11T18:57:17.685Z,98609.53
2023-01-11T18:59:45.500Z,98610.44
2023-01-11T19:02:25.407Z,98603.66
2023-01-11T19:04:54.223Z,98608.72
2023-01-11T19:07:23.010Z,98606.22
2023-01-11T19:09:51.564Z,98601.16
2023-01-11T19:12:21.022Z,98589.28
2023-01-11T19:14:48.823Z,98596.13
2023-01-11T19:17:16.787Z,98594.34
2023-01-11T19:19:44.798Z,98603.66
2023-01-11T19:22:13.242Z,98611.25
2023-01-11T19:24:41.474Z,98618.84
2023-01-11T19:27:09.518Z,98626.44
2023-01-11T19:29:38.937Z,98624.72
2023-01-11T19:32:07.638Z,98632.38
2023-01-11T19:34:36.137Z,98637.44
2023-01-11T19:37:04.224Z,98634.03
2023-01-11T19:39:32.283Z,98634.03
2023-01-11T19:42:01.980Z,98632.31
2023-01-11T19:44:32.093Z,98634.03
2023-01-11T19:47:11.464Z,98626.44
2023-01-11T19:49:41.210Z,98620.50
2023-01-11T19:52:12.977Z,98629.81
2023-01-11T19:54:42.313Z,98636.53
2023-01-11T19:57:11.678Z,98644.13
2023-01-11T19:59:39.572Z,98648.41
2023-01-11T20:02:09.256Z,98656.06
2023-01-11T20:04:37.444Z,98644.13
2023-01-11T20:07:05.952Z,98660.28
2023-01-11T20:09:34.084Z,98668.72
2023-01-11T20:12:01.944Z,98669.56
2023-01-11T20:14:29.867Z,98667.00
2023-01-11T20:16:57.691Z,98667.06
2023-01-11T20:19:27.145Z,98662.00
2023-01-11T20:21:55.900Z,98659.38
2023-01-11T20:24:28.279Z,98647.56
2023-01-11T20:26:56.773Z,98647.56
2023-01-11T20:29:24.715Z,98646.72
2023-01-11T20:31:52.688Z,98637.44
2023-01-11T20:34:20.686Z,98623.88
2023-01-11T20:36:50.616Z,98618.06
2023-01-11T20:39:18.472Z,98618.06
2023-01-11T20:41:49.826Z,98608.72
2023-01-11T20:44:19.845Z,98607.03
2023-01-11T20:46:48.503Z,98595.22
2023-01-11T20:49:17.165Z,98589.34
2023-01-11T20:51:45.878Z,98585.09
2023-01-11T20:54:15.737Z,98597.00
2023-01-11T20:56:46.419Z,98596.06
2023-01-11T20:59:16.503Z,98598.66
2023-01-11T21:01:44.481Z,98600.34
2023-01-11T21:04:13.580Z,98591.00
2023-01-11T21:06:43.880Z,98600.28
2023-01-11T21:09:14.245Z,98613.81
2023-01-11T21:11:44.172Z,98625.63
2023-01-11T21:14:12.924Z,98636.53
2023-01-11T21:16:42.436Z,98655.22
2023-01-11T21:19:12.911Z,98658.56
2023-01-11T21:21:41.003Z,98675.50
2023-01-11T21:24:10.085Z,98685.63
2023-01-11T21:26:38.033Z,98690.69
2023-01-11T21:29:07.395Z,98708.47
2023-01-11T21:31:37.057Z,98708.44
2023-01-11T21:34:05.490Z,98710.97
2023-01-11T21:36:34.245Z,98716.03
2023-01-11T21:39:03.475Z,98713.53
2023-01-11T21:41:50.283Z,98708.44
2023-01-11T21:44:20.915Z,98699.94
2023-01-11T21:46:48.990Z,98714.38
2023-01-11T21:49:17.781Z,98704.19
2023-01-11T21:51:45.726Z,98701.69
2023-01-11T21:54:15.592Z,98698.28
2023-01-11T21:56:43.505Z,98691.56
2023-01-11T21:59:11.720Z,98688.13
2023-01-11T22:01:42.636Z,98689.03
2023-01-11T22:04:13.106Z,98684.75
2023-01-11T22:06:42.794Z,98692.34
2023-01-11T22:09:12.604Z,98700.78
2023-01-11T22:11:41.085Z,98722.81
2023-01-11T22:14:09.088Z,98730.34
2023-01-11T22:16:38.060Z,98744.72
2023-01-11T22:19:08.543Z,98752.31
2023-01-11T22:21:37.675Z,98763.31
2023-01-11T22:24:08.414Z,98769.25
2023-01-11T22:26:38.987Z,98764.97
2023-01-11T22:29:15.370Z,98772.63
2023-01-11T22:31:46.725Z,98771.81
2023-01-11T22:34:16.983Z,98771.75
2023-01-11T22:36:45.501Z,98778.53
2023-01-11T22:39:14.970Z,98787.78
2023-01-11T22:41:45.614Z,98791.19
2023-01-11T22:44:13.622Z,98795.44
2023-01-11T22:46:41.796Z,98785.31
2023-01-11T22:49:09.986Z,98800.56
2023-01-11T22:51:39.183Z,98803.88
2023-01-11T22:54:07.109Z,98808.94
2023-01-11T22:56:35.053Z,98828.44
2023-01-11T22:59:03.035Z,98840.25
2023-01-11T23:01:32.600Z,98854.59
2023-01-11T23:06:38.273Z,98860.50
2023-01-11T23:09:07.483Z,98857.97
2023-01-11T23:11:55.460Z,98863.06
2023-01-11T23:14:23.296Z,98874.91
2023-01-11T23:16:51.211Z,98872.28
2023-01-11T23:19:20.765Z,98893.44
2023-01-11T23:21:50.045Z,98914.59
2023-01-11T23:24:18.274Z,98929.00
2023-01-11T23:26:46.226Z,98937.47
2023-01-11T23:29:14.486Z,98943.38
2023-01-11T23:31:43.536Z,98969.63
2023-01-11T23:34:12.655Z,98989.94
2023-01-11T23:36:42.256Z,99006.00
2023-01-11T23:39:15.253Z,99017.84
2023-01-11T23:42:00.728Z,99031.41
2023-01-11T23:44:32.995Z,99044.13
2023-01-11T23:47:18.276Z,99042.34
2023-01-11T23:49:46.179Z,99044.97
2023-01-11T23:52:13.944Z,99039.84
2023-01-11T23:54:45.423Z,99030.56
2023-01-11T23:57:14.423Z,99027.16
2023-01-11T23:59:43.608Z,99030.50
